Terminal Aerodrome Forecast
Issued by NWS

Home | Current Version | Previous Version | Text Only | Print | Product List | Glossary On
Versions: 1 2 3 4 5 6 7 8 9 10 11 12 13 14 15 16 17 18 19 20 21 22 23 24 25
000
FTUS46 KSEW 281100
TAFHQM
TAF
KHQM 281130Z 2812/2912 24015G25KT P6SM SCT018 BKN035
      TEMPO 2812/2816 5SM -SHRA BR BKN018 OVC035
     FM282200 19009KT P6SM VCSH SCT035 BKN070 OVC120
     FM290600 13007KT P6SM OVC070=

USA.gov is the U.S. government's official web portal to all federal, state and local government web resources and services.